• Join FlightAware (Why Join?)
  • Login
  • US Flag 
05:24PM EDT


 

Airport Tracker/Info


-or-


 

Live Flight TrackerFlight Track Log ✈ EJM19 ✈ 01-Jul-2013 ✈ KTEB - KMVY

Flight Track Log - Related Links

Times and Time Zones

All times are in EDT time to prevent confusion due to time zone crossing. See the EJM19 flight status page for this flight to view local times or setup timezone preferences in your user account.

Time Position Orientation Groundspeed Altitude Reporting Facility
EDT Latitude Longitude Course Direction KTS MPH feet Rate Location/Type
05:30PM 40.8167 -74.1333 72° East 242 278 1,500  Level New York TRACON
05:31PM 40.8167 -74.2333 270° West 266 306 5,200 2,280 Climbing New York TRACON
05:32PM 40.8833 -74.2500 349° North 328 377 6,100 420 Climbing New York TRACON
05:33PM 40.9667 -74.2167 17° North 299 344 6,100 -60 Level New York TRACON
05:34PM 41.0500 -74.1833 17° North 307 353 6,000 1,380 Descending New York TRACON
05:35PM 41.1777 -74.0224 72° East  Level FlightAware Approximate
05:36PM 41.1342 -74.0661 46° Northeast 316 364 10,100  Level Boston Center
05:37PM 41.1733 -73.9347 68° East 332 382 11,000 420 Climbing Boston Center
05:38PM 41.2169 -73.7867 69° East 374 430 11,000  Level Boston Center
05:39PM 41.2517 -73.6686 69° East 384 442 11,000  Level Boston Center
05:40PM 41.2656 -73.5197 83° East 378 435 11,000 480 Level Boston Center
05:41PM 41.2708 -73.3956 87° East 369 425 12,000 900 Climbing Boston Center
05:42PM 41.2783 -73.2603 86° East 369 425 12,900 1,080 Climbing Boston Center
05:43PM 41.2856 -73.1031 86° East 376 433 14,200 1,080 Climbing Boston Center
05:44PM 41.2906 -72.9678 87° East 385 443 15,100 360 Climbing Boston Center
05:45PM 41.2972 -72.8103 87° East 392 451 15,000 -60 Descending Boston Center
05:46PM 41.3039 -72.6778 86° East 392 451 15,000  Level Boston Center
05:47PM 41.3125 -72.4981 86° East 402 463 15,000  Level Boston Center
05:48PM 41.3186 -72.3047 88° East 402 463 15,000  Level Boston Center
05:49PM 41.3289 -72.1389 85° East 402 463 15,000  Level Boston Center
05:50PM 41.3306 -72.0364 89° East 404 465 15,000  Level Boston Center
05:51PM 41.3344 -71.9647 86° East 404 465 15,000 -420 Level Boston Center
05:51PM 41.3403 -71.8594 86° East 402 463 14,400 -1,620 Descending Boston Center
05:52PM 41.3475 -71.6964 87° East 373 429 12,000 -2,100 Descending Boston Center
05:53PM 41.3531 -71.5800 86° East 355 409 10,300 -2,160 Descending Boston Center
05:54PM 41.3583 -71.4528 87° East 329 379 7,700 -1,680 Descending Boston Center
05:55PM 41.3636 -71.3558 86° East 298 343 7,000 -600 Descending Boston Center
05:56PM 41.3686 -71.2342 87° East 287 330 6,600 -900 Descending Boston Center
05:57PM 41.3717 -71.1428 87° East 288 331 5,300 -840 Descending Boston Center
05:58PM 41.3789 -71.0375 85° East 264 304 5,000 -300 Descending Boston Center
05:59PM 41.3775 -70.9408 91° East 274 315 4,700 -960 Descending Boston Center
06:00PM 41.3572 -70.8306 104° East 274 315 3,100 -1,380 Descending Boston Center
06:01PM 41.3978 -70.7575 53° Northeast 256 295 2,000 -600 Descending Boston Center
06:02PM 41.4492 -70.6925 43° Northeast 237 273 2,000  Level Boston Center
06:03PM 41.4858 -70.6444 44° Northeast 231 266 2,000 -60 Level Boston Center
06:04PM 41.5369 -70.5903 38° Northeast 224 258 1,900 -60 Descending Boston Center
06:05PM 41.5464 -70.5206 80° East 184 212 1,900  Level Boston Center
06:06PM 41.5247 -70.4742 122° Southeast 162 186 1,900  Level Boston Center
06:07PM 41.4856 -70.5086 213° Southwest 91 105 2,000 -240 Climbing Boston Center
06:08PM 41.4550 -70.5428 220° Southwest 114 131 1,500 -480 Descending Boston Center
06:09PM 41.4344 -70.5656 220° Southwest 120 138 1,100 -300 Descending Boston Center
06:11PM 41.4119 -70.5939 223° Southwest 114 131 900 -180 Descending Boston Center
06:13PM 41.3833 -70.6000 203° Southwest  Level FlightAware Approximate